createdAt,value
2018-12-25T00:01:27.430Z,10.37
2018-12-25T00:04:07.950Z,9.97
2018-12-25T00:06:48.289Z,10.20
2018-12-25T00:09:28.730Z,10.90
2018-12-25T00:12:09.121Z,9.40
2018-12-25T00:14:49.833Z,9.03
2018-12-25T00:17:28.684Z,8.57
2018-12-25T00:20:16.616Z,8.03
2018-12-25T00:23:04.480Z,11.67
2018-12-25T00:31:43.979Z,8.10
2018-12-25T00:34:33.569Z,9.47
2018-12-25T00:37:21.466Z,8.47
2018-12-25T00:43:16.235Z,7.70
2018-12-25T00:46:04.100Z,7.67
2018-12-25T00:48:45.190Z,7.47
2018-12-25T00:51:25.864Z,9.93
2018-12-25T00:54:06.271Z,14.27
2018-12-25T00:56:46.714Z,10.30
2018-12-25T00:59:27.123Z,9.17
2018-12-25T01:02:07.681Z,7.00
2018-12-25T01:04:48.284Z,12.10
2018-12-25T01:07:28.835Z,9.00
2018-12-25T01:10:09.869Z,8.53
2018-12-25T01:12:50.944Z,7.77
2018-12-25T01:15:31.670Z,8.27
2018-12-25T01:18:12.246Z,8.17
2018-12-25T01:20:53.095Z,8.73
2018-12-25T01:23:33.817Z,7.37
2018-12-25T01:26:14.509Z,8.10
2018-12-25T01:28:55.341Z,7.90
2018-12-25T01:31:35.821Z,9.93
2018-12-25T01:34:16.319Z,10.53
2018-12-25T01:36:56.777Z,7.20
2018-12-25T01:39:37.444Z,10.00
2018-12-25T01:42:18.283Z,8.50
2018-12-25T01:44:58.855Z,6.80
2018-12-25T01:47:39.356Z,6.43
2018-12-25T01:50:19.924Z,8.40
2018-12-25T01:53:00.786Z,7.13
2018-12-25T01:55:41.193Z,8.90
2018-12-25T01:58:21.855Z,7.80
2018-12-25T02:01:02.453Z,9.37
2018-12-25T02:03:43.115Z,6.47
2018-12-25T02:06:23.738Z,9.93
2018-12-25T02:09:04.283Z,9.90
2018-12-25T02:11:45.201Z,10.03
2018-12-25T02:14:25.890Z,6.83
2018-12-25T02:17:06.230Z,7.37
2018-12-25T02:19:47.098Z,9.70
2018-12-25T02:22:27.596Z,9.67
2018-12-25T02:25:08.313Z,8.40
2018-12-25T02:27:48.865Z,6.53
2018-12-25T02:30:29.760Z,8.23
2018-12-25T02:33:10.380Z,7.53
2018-12-25T02:35:50.745Z,7.90
2018-12-25T02:38:31.226Z,6.87
2018-12-25T02:41:11.603Z,10.07
2018-12-25T02:43:52.854Z,9.17
2018-12-25T02:46:33.295Z,11.23
2018-12-25T02:49:13.839Z,6.80
2018-12-25T02:51:54.712Z,9.23
2018-12-25T02:54:35.231Z,7.50
2018-12-25T02:57:16.024Z,8.70
2018-12-25T02:59:56.592Z,9.07
2018-12-25T03:02:37.385Z,10.47
2018-12-25T03:05:18.030Z,7.77
2018-12-25T03:07:58.715Z,9.30
2018-12-25T03:10:40.353Z,6.83
2018-12-25T03:13:21.604Z,7.93
2018-12-25T03:16:02.207Z,9.80
2018-12-25T03:18:41.100Z,7.87
2018-12-25T03:21:28.955Z,7.83
2018-12-25T03:30:04.489Z,8.33
2018-12-25T03:32:52.340Z,8.43
2018-12-25T03:35:40.215Z,8.17
2018-12-25T03:38:28.054Z,13.57
2018-12-25T03:41:15.927Z,10.07
2018-12-25T03:47:10.711Z,7.30
2018-12-25T03:49:51.381Z,7.97
2018-12-25T03:52:32.259Z,7.73
2018-12-25T03:55:12.914Z,6.87
2018-12-25T03:57:53.439Z,7.30
2018-12-25T04:00:34.204Z,5.97
2018-12-25T04:03:14.891Z,7.27
2018-12-25T04:05:55.330Z,8.67
2018-12-25T04:08:35.651Z,8.73
2018-12-25T04:11:16.036Z,7.13
2018-12-25T04:13:56.799Z,6.10
2018-12-25T04:16:37.440Z,6.67
2018-12-25T04:19:18.327Z,8.60
2018-12-25T04:21:58.694Z,8.07
2018-12-25T04:24:40.469Z,7.60
2018-12-25T04:27:21.483Z,11.00
2018-12-25T04:30:02.152Z,6.90
2018-12-25T04:32:42.980Z,7.00
2018-12-25T04:35:23.343Z,8.20
2018-12-25T04:38:04.675Z,6.43
2018-12-25T04:40:45.811Z,9.00
2018-12-25T04:43:26.891Z,6.87
2018-12-25T04:46:07.452Z,6.80
2018-12-25T04:48:47.916Z,9.20
2018-12-25T04:51:28.709Z,10.40
2018-12-25T04:54:09.447Z,8.90
2018-12-25T04:56:50.055Z,9.60
2018-12-25T04:59:30.358Z,8.77
2018-12-25T05:02:10.989Z,8.20
2018-12-25T05:04:51.539Z,7.40
2018-12-25T05:07:32.179Z,9.93
2018-12-25T05:10:13.265Z,6.93
2018-12-25T05:12:54.060Z,8.10
2018-12-25T05:15:34.756Z,7.33
2018-12-25T05:18:15.218Z,8.97
2018-12-25T05:20:55.996Z,9.30
2018-12-25T05:23:36.612Z,10.20
2018-12-25T05:26:17.166Z,9.17
2018-12-25T05:28:58.444Z,9.20
2018-12-25T05:31:38.990Z,11.07
2018-12-25T05:34:19.753Z,11.10
2018-12-25T05:37:00.230Z,10.27
2018-12-25T05:39:40.866Z,10.73
2018-12-25T05:42:21.341Z,10.83
2018-12-25T05:45:02.488Z,11.17
2018-12-25T05:47:43.124Z,11.33
2018-12-25T05:50:23.624Z,10.27
2018-12-25T05:53:04.224Z,9.83
2018-12-25T05:55:44.715Z,10.67
2018-12-25T05:58:25.325Z,12.13
2018-12-25T06:01:05.796Z,8.93
2018-12-25T06:03:46.663Z,10.73
2018-12-25T06:06:27.016Z,10.57
2018-12-25T06:09:08.060Z,12.60
2018-12-25T06:11:48.818Z,10.30
2018-12-25T06:14:29.620Z,10.30
2018-12-25T06:17:08.461Z,11.97
2018-12-25T06:23:04.821Z,15.20
2018-12-25T06:25:52.694Z,10.07
2018-12-25T06:28:40.545Z,11.47
2018-12-25T06:31:28.481Z,9.77
2018-12-25T06:34:30.255Z,13.67
2018-12-25T06:37:05.970Z,11.47
2018-12-25T06:39:53.816Z,11.23
2018-12-25T06:42:41.681Z,12.03
2018-12-25T06:45:29.562Z,12.43
2018-12-25T06:48:17.410Z,10.20
2018-12-25T06:51:03.730Z,12.23
2018-12-25T06:53:40.835Z,13.40
2018-12-25T06:56:21.705Z,10.77
2018-12-25T06:59:02.566Z,12.20
2018-12-25T07:01:42.831Z,15.67
2018-12-25T07:04:23.571Z,12.50
2018-12-25T07:07:04.371Z,14.93
2018-12-25T07:09:45.071Z,13.67
2018-12-25T07:12:25.830Z,11.67
2018-12-25T07:15:06.340Z,11.90
2018-12-25T07:17:47.570Z,12.87
2018-12-25T07:20:28.916Z,12.37
2018-12-25T07:23:09.778Z,12.70
2018-12-25T07:25:50.980Z,11.53
2018-12-25T07:28:31.345Z,12.37
2018-12-25T07:31:12.109Z,13.17
2018-12-25T07:33:52.663Z,11.47
2018-12-25T07:36:33.148Z,12.50
2018-12-25T07:39:13.813Z,14.07
2018-12-25T07:41:54.140Z,13.93
2018-12-25T07:44:34.658Z,13.83
2018-12-25T07:47:15.301Z,12.37
2018-12-25T07:49:55.965Z,14.73
2018-12-25T07:52:36.694Z,14.53
2018-12-25T07:55:20.669Z,13.50
2018-12-25T07:58:01.957Z,16.37
2018-12-25T08:00:42.430Z,13.60
2018-12-25T08:03:22.922Z,13.53
2018-12-25T08:06:03.467Z,12.43
2018-12-25T08:08:42.279Z,13.07
2018-12-25T08:11:30.149Z,15.70
2018-12-25T08:14:18.003Z,13.43
2018-12-25T08:20:00.017Z,14.30
2018-12-25T08:22:47.903Z,11.60
2018-12-25T08:25:36.095Z,13.20
2018-12-25T08:28:24.013Z,11.73
2018-12-25T08:34:10.379Z,12.97
2018-12-25T08:36:58.268Z,13.77
2018-12-25T08:39:46.143Z,13.13
2018-12-25T08:42:34.048Z,13.30
2018-12-25T08:45:22.036Z,13.47
2018-12-25T08:48:09.918Z,15.83
2018-12-25T08:50:57.902Z,12.90
2018-12-25T08:53:38.668Z,11.53
2018-12-25T08:56:19.648Z,10.93
2018-12-25T08:59:00.542Z,14.67
2018-12-25T09:01:40.906Z,13.27
2018-12-25T09:04:21.485Z,12.03
2018-12-25T09:07:02.309Z,13.47
2018-12-25T09:09:42.755Z,11.87
2018-12-25T09:12:23.376Z,14.30
2018-12-25T09:15:04.272Z,15.97
2018-12-25T09:17:45.012Z,13.00
2018-12-25T09:20:25.713Z,11.03
2018-12-25T09:23:06.351Z,15.17
2018-12-25T09:25:46.939Z,12.30
2018-12-25T09:28:27.388Z,10.63
2018-12-25T09:31:08.000Z,16.17
2018-12-25T09:33:48.789Z,13.23
2018-12-25T09:36:29.216Z,10.23
2018-12-25T09:39:09.653Z,12.33
2018-12-25T09:41:50.527Z,13.53
2018-12-25T09:44:31.174Z,9.83
2018-12-25T09:47:11.691Z,12.30
2018-12-25T09:49:52.150Z,11.00
2018-12-25T09:52:33.062Z,12.33
2018-12-25T09:55:13.429Z,11.73
2018-12-25T09:57:54.035Z,10.90
2018-12-25T10:00:34.693Z,13.87
2018-12-25T10:03:15.475Z,9.30
2018-12-25T10:05:56.479Z,9.40
2018-12-25T10:08:37.045Z,9.60
2018-12-25T10:11:17.663Z,9.93
2018-12-25T10:13:58.106Z,11.20
2018-12-25T10:16:38.739Z,10.13
2018-12-25T10:19:19.596Z,10.47
2018-12-25T10:22:03.149Z,10.03
2018-12-25T10:24:42.984Z,11.83
2018-12-25T10:27:21.935Z,10.83
2018-12-25T10:30:09.849Z,9.20
2018-12-25T10:32:57.744Z,10.23
2018-12-25T10:35:45.660Z,11.87
2018-12-25T10:38:33.547Z,8.93
2018-12-25T10:41:21.379Z,12.63
2018-12-25T10:44:09.279Z,8.57
2018-12-25T10:46:57.218Z,13.37
2018-12-25T10:49:45.113Z,9.17
2018-12-25T10:52:33.070Z,8.03
2018-12-25T10:55:14.180Z,7.20
2018-12-25T10:57:54.864Z,11.33
2018-12-25T11:00:35.513Z,8.63
2018-12-25T11:03:15.834Z,9.83
2018-12-25T11:05:56.409Z,7.77
2018-12-25T11:08:36.899Z,11.57
2018-12-25T11:11:17.705Z,8.73
2018-12-25T11:13:58.416Z,7.23
2018-12-25T11:16:39.189Z,7.90
2018-12-25T11:19:19.625Z,8.87
2018-12-25T11:22:00.274Z,8.70
2018-12-25T11:24:40.870Z,8.13
2018-12-25T11:27:21.705Z,8.27
2018-12-25T11:30:02.291Z,9.27
2018-12-25T11:32:42.984Z,8.43
2018-12-25T11:35:23.658Z,9.50
2018-12-25T11:38:04.357Z,7.10
2018-12-25T11:40:44.914Z,6.83
2018-12-25T11:43:25.730Z,8.17
2018-12-25T11:46:06.484Z,5.80
2018-12-25T11:48:47.058Z,8.27
2018-12-25T11:51:27.729Z,8.33
2018-12-25T11:54:08.182Z,6.93
2018-12-25T11:56:47.068Z,8.63
2018-12-25T11:59:34.979Z,10.33
2018-12-25T12:02:22.885Z,7.30
2018-12-25T12:05:10.789Z,6.00
2018-12-25T12:07:58.635Z,7.03
2018-12-25T12:10:46.524Z,5.93
2018-12-25T12:13:34.390Z,7.87
2018-12-25T12:19:15.326Z,7.30
2018-12-25T12:22:03.263Z,7.83
2018-12-25T12:24:51.094Z,7.83
2018-12-25T12:30:45.889Z,8.03
2018-12-25T12:33:33.768Z,5.30
2018-12-25T12:36:21.631Z,5.10
2018-12-25T12:42:19.503Z,4.60
2018-12-25T12:45:07.686Z,6.10
2018-12-25T12:47:55.543Z,3.87
2018-12-25T12:53:38.375Z,4.63
2018-12-25T12:56:26.386Z,4.27
2018-12-25T12:59:14.261Z,3.73
2018-12-25T13:02:02.104Z,5.43
2018-12-25T13:04:49.978Z,5.73
2018-12-25T13:07:37.903Z,5.57
2018-12-25T13:10:25.799Z,4.40
2018-12-25T13:13:13.782Z,9.43
2018-12-25T13:16:01.712Z,9.60
2018-12-25T13:18:49.671Z,6.07
2018-12-25T13:21:37.591Z,5.77
2018-12-25T13:24:25.489Z,4.63
2018-12-25T13:27:13.338Z,6.63
2018-12-25T13:32:54.572Z,6.97
2018-12-25T13:35:42.430Z,7.40
2018-12-25T13:38:30.416Z,6.30
2018-12-25T13:41:31.260Z,6.53
2018-12-25T13:44:18.734Z,8.13
2018-12-25T13:47:06.636Z,9.03
2018-12-25T13:49:54.564Z,6.17
2018-12-25T13:52:42.429Z,6.83
2018-12-25T13:55:23.472Z,6.40
2018-12-25T13:58:03.974Z,8.20
2018-12-25T14:00:44.560Z,7.67
2018-12-25T14:03:25.121Z,6.70
2018-12-25T14:06:05.714Z,7.17
2018-12-25T14:08:46.522Z,6.67
2018-12-25T14:11:26.969Z,6.50
2018-12-25T14:14:07.746Z,9.43
2018-12-25T14:16:48.545Z,7.63
2018-12-25T14:19:29.803Z,7.83
2018-12-25T14:22:11.118Z,7.00
2018-12-25T14:24:51.486Z,10.13
2018-12-25T14:27:31.852Z,5.97
2018-12-25T14:30:12.610Z,8.20
2018-12-25T14:32:53.241Z,7.93
2018-12-25T14:35:33.838Z,8.63
2018-12-25T14:38:15.071Z,10.97
2018-12-25T14:40:55.716Z,8.23
2018-12-25T14:43:36.558Z,9.20
2018-12-25T14:46:17.046Z,8.60
2018-12-25T14:48:57.409Z,6.03
2018-12-25T14:51:37.970Z,7.30
2018-12-25T14:54:19.021Z,5.63
2018-12-25T14:56:59.904Z,5.77
2018-12-25T14:59:40.735Z,9.87
2018-12-25T15:02:21.748Z,7.83
2018-12-25T15:05:02.242Z,5.27
2018-12-25T15:07:43.460Z,7.70
2018-12-25T15:10:24.384Z,8.03
2018-12-25T15:13:05.083Z,8.80
2018-12-25T15:15:45.740Z,9.63
2018-12-25T15:18:26.568Z,6.70
2018-12-25T15:21:09.360Z,7.43
2018-12-25T15:23:49.939Z,6.40
2018-12-25T15:26:30.640Z,8.63
2018-12-25T15:29:11.295Z,6.17
2018-12-25T15:31:52.053Z,10.43
2018-12-25T15:34:32.899Z,4.77
2018-12-25T15:37:13.459Z,7.00
2018-12-25T15:39:54.070Z,4.33
2018-12-25T15:42:34.960Z,6.00
2018-12-25T15:45:15.292Z,5.17
2018-12-25T15:47:55.829Z,6.73
2018-12-25T15:50:36.641Z,8.10
2018-12-25T15:53:17.854Z,5.20
2018-12-25T15:55:58.238Z,5.97
2018-12-25T15:58:38.648Z,6.93
2018-12-25T16:01:19.153Z,7.77
2018-12-25T16:03:59.699Z,10.23
2018-12-25T16:06:40.612Z,10.60
2018-12-25T16:09:21.655Z,9.73
2018-12-25T16:12:02.455Z,9.87
2018-12-25T16:14:42.929Z,11.13
2018-12-25T16:17:23.463Z,10.37
2018-12-25T16:20:03.914Z,9.23
2018-12-25T16:22:44.720Z,11.00
2018-12-25T16:25:25.285Z,10.67
2018-12-25T16:28:06.640Z,12.47
2018-12-25T16:30:47.040Z,11.37
2018-12-25T16:33:27.727Z,12.57
2018-12-25T16:36:08.857Z,10.07
2018-12-25T16:38:49.686Z,10.47
2018-12-25T16:41:30.399Z,13.37
2018-12-25T16:44:10.986Z,10.70
2018-12-25T16:46:51.669Z,12.17
2018-12-25T16:49:32.645Z,9.73
2018-12-25T16:52:13.276Z,13.10
2018-12-25T16:54:53.856Z,10.30
2018-12-25T16:57:34.736Z,9.90
2018-12-25T17:00:15.389Z,12.90
2018-12-25T17:02:56.015Z,10.47
2018-12-25T17:05:36.783Z,10.93
2018-12-25T17:08:18.064Z,12.47
2018-12-25T17:10:58.590Z,9.50
2018-12-25T17:13:39.009Z,11.83
2018-12-25T17:16:19.459Z,13.43
2018-12-25T17:18:59.920Z,11.27
2018-12-25T17:21:40.689Z,13.43
2018-12-25T17:24:21.484Z,11.17
2018-12-25T17:27:01.810Z,11.30
2018-12-25T17:29:42.675Z,15.17
2018-12-25T17:32:23.094Z,12.37
2018-12-25T17:35:03.681Z,12.60
2018-12-25T17:37:44.420Z,13.00
2018-12-25T17:40:25.250Z,14.33
2018-12-25T17:43:05.963Z,11.53
2018-12-25T17:45:46.535Z,17.73
2018-12-25T17:48:27.870Z,13.57
2018-12-25T17:51:09.081Z,15.60
2018-12-25T17:53:49.564Z,17.80
2018-12-25T17:56:37.562Z,13.37
2018-12-25T17:59:12.354Z,13.83
2018-12-25T18:01:51.229Z,17.00
2018-12-25T18:04:39.109Z,16.00
2018-12-25T18:07:26.995Z,16.33
2018-12-25T18:10:14.929Z,19.03
2018-12-25T18:13:02.785Z,16.90
2018-12-25T18:15:50.671Z,15.20
2018-12-25T18:21:32.345Z,22.60
2018-12-25T18:24:20.217Z,18.37
2018-12-25T18:27:08.092Z,18.97
2018-12-25T18:32:51.071Z,20.43
2018-12-25T18:35:38.965Z,23.20
2018-12-25T18:38:26.826Z,16.37
2018-12-25T18:44:13.241Z,17.43
2018-12-25T18:47:01.237Z,21.43
2018-12-25T18:49:49.299Z,17.37
2018-12-25T18:52:37.196Z,20.33
2018-12-25T18:55:25.114Z,21.77
2018-12-25T18:58:06.215Z,22.37
2018-12-25T19:00:47.065Z,19.73
2018-12-25T19:03:27.631Z,19.20
2018-12-25T19:06:08.389Z,19.23
2018-12-25T19:08:48.937Z,20.57
2018-12-25T19:11:29.663Z,23.37
2018-12-25T19:14:10.316Z,22.53
2018-12-25T19:16:51.639Z,19.17
2018-12-25T19:19:32.574Z,20.00
2018-12-25T19:22:13.566Z,20.00
2018-12-25T19:24:54.373Z,22.23
2018-12-25T19:27:34.963Z,20.93
2018-12-25T19:30:15.741Z,19.80
2018-12-25T19:32:59.270Z,19.07
2018-12-25T19:35:40.425Z,20.00
2018-12-25T19:38:21.001Z,23.00
2018-12-25T19:41:05.839Z,21.57
2018-12-25T19:43:44.459Z,20.77
2018-12-25T19:46:25.160Z,20.87
2018-12-25T19:49:05.916Z,22.50
2018-12-25T19:51:46.690Z,19.63
2018-12-25T19:54:27.240Z,20.83
2018-12-25T19:57:09.848Z,24.87
2018-12-25T19:59:50.177Z,21.77
2018-12-25T20:02:30.921Z,23.97
2018-12-25T20:05:11.451Z,24.13
2018-12-25T20:07:51.856Z,19.60
2018-12-25T20:10:32.900Z,19.40
2018-12-25T20:13:13.957Z,26.77
2018-12-25T20:15:54.477Z,23.40
2018-12-25T20:18:35.405Z,26.43
2018-12-25T20:21:15.756Z,21.57
2018-12-25T20:23:56.985Z,23.00
2018-12-25T20:26:37.651Z,24.23
2018-12-25T20:29:18.435Z,22.90
2018-12-25T20:31:59.061Z,22.07
2018-12-25T20:34:39.621Z,22.07
2018-12-25T20:37:20.198Z,21.83
2018-12-25T20:40:00.950Z,20.17
2018-12-25T20:42:42.275Z,20.53
2018-12-25T20:45:22.837Z,19.67
2018-12-25T20:48:03.704Z,21.10
2018-12-25T20:50:44.599Z,22.23
2018-12-25T20:53:25.111Z,21.77
2018-12-25T20:56:05.753Z,21.80
2018-12-25T20:58:46.455Z,21.60
2018-12-25T21:01:27.349Z,26.27
2018-12-25T21:04:08.036Z,20.70
2018-12-25T21:06:48.770Z,22.10
2018-12-25T21:09:29.646Z,23.13
2018-12-25T21:12:10.473Z,20.57
2018-12-25T21:14:51.162Z,22.07
2018-12-25T21:17:31.682Z,23.73
2018-12-25T21:20:12.426Z,23.00
2018-12-25T21:22:52.867Z,20.93
2018-12-25T21:25:33.220Z,23.23
2018-12-25T21:28:13.880Z,21.57
2018-12-25T21:30:54.608Z,24.87
2018-12-25T21:33:36.648Z,22.77
2018-12-25T21:36:17.071Z,24.50
2018-12-25T21:38:57.669Z,22.67
2018-12-25T21:41:38.506Z,21.70
2018-12-25T21:44:19.711Z,20.80
2018-12-25T21:47:00.508Z,20.47
2018-12-25T21:49:41.297Z,24.17
2018-12-25T21:52:22.475Z,23.63
2018-12-25T21:55:03.031Z,20.47
2018-12-25T21:57:44.697Z,21.47
2018-12-25T22:00:25.185Z,22.90
2018-12-25T22:03:05.709Z,19.77
2018-12-25T22:05:46.160Z,21.50
2018-12-25T22:08:26.540Z,20.77
2018-12-25T22:11:07.006Z,23.43
2018-12-25T22:13:47.747Z,19.70
2018-12-25T22:16:28.681Z,17.70
2018-12-25T22:19:09.226Z,18.27
2018-12-25T22:21:49.669Z,17.33
2018-12-25T22:24:28.621Z,15.83
2018-12-25T22:27:16.853Z,16.67
2018-12-25T22:30:05.440Z,15.63
2018-12-25T22:32:53.762Z,16.63
2018-12-25T22:35:41.676Z,14.53
2018-12-25T22:38:29.790Z,14.93
2018-12-25T22:41:17.681Z,14.13
2018-12-25T22:44:05.558Z,15.33
2018-12-25T22:46:53.445Z,17.57
2018-12-25T22:49:42.246Z,13.73
2018-12-25T22:52:30.170Z,11.50
2018-12-25T22:55:18.235Z,10.43
2018-12-25T22:58:06.117Z,11.03
2018-12-25T23:00:46.785Z,8.30
2018-12-25T23:03:27.736Z,7.33
2018-12-25T23:06:08.286Z,11.77
2018-12-25T23:08:48.929Z,8.90
2018-12-25T23:11:29.347Z,7.33
2018-12-25T23:14:09.980Z,8.53
2018-12-25T23:16:50.601Z,8.43
2018-12-25T23:19:31.404Z,9.03
2018-12-25T23:22:12.338Z,10.33
2018-12-25T23:24:52.879Z,10.63
2018-12-25T23:27:33.552Z,9.00
2018-12-25T23:30:14.144Z,7.50
2018-12-25T23:32:55.177Z,8.60
2018-12-25T23:35:36.001Z,9.10
2018-12-25T23:38:17.456Z,10.53
2018-12-25T23:40:57.990Z,10.50
2018-12-25T23:43:38.819Z,14.97
2018-12-25T23:46:19.954Z,12.03
2018-12-25T23:49:01.049Z,9.80
2018-12-25T23:51:42.099Z,13.20
2018-12-25T23:54:22.717Z,14.70
2018-12-25T23:57:03.606Z,11.20
2018-12-25T23:59:44.122Z,13.33
